sensor_id;sensor_type;location;lat;lon;timestamp;temperature;humidity
64561;DHT22;50960;46.838;16.838;2022-11-12T00:00:38;4.50;99.90
64561;DHT22;50960;46.838;16.838;2022-11-12T00:03:04;4.50;99.90
64561;DHT22;50960;46.838;16.838;2022-11-12T00:05:31;4.60;99.90
64561;DHT22;50960;46.838;16.838;2022-11-12T00:07:57;4.50;99.90
64561;DHT22;50960;46.838;16.838;2022-11-12T00:10:24;4.50;99.90
64561;DHT22;50960;46.838;16.838;2022-11-12T00:12:50;4.40;99.90
64561;DHT22;50960;46.838;16.838;2022-11-12T00:15:16;4.40;99.90
64561;DHT22;50960;46.838;16.838;2022-11-12T00:17:43;4.40;99.90
64561;DHT22;50960;46.838;16.838;2022-11-12T00:20:10;4.30;99.90
64561;DHT22;50960;46.838;16.838;2022-11-12T00:22:36;4.20;99.90
64561;DHT22;50960;46.838;16.838;2022-11-12T00:25:03;4.20;99.90
64561;DHT22;50960;46.838;16.838;2022-11-12T00:27:31;4.20;99.90
64561;DHT22;50960;46.838;16.838;2022-11-12T00:29:58;4.10;99.90
64561;DHT22;50960;46.838;16.838;2022-11-12T00:32:24;4.10;99.90
64561;DHT22;50960;46.838;16.838;2022-11-12T00:34:50;4.00;99.90
64561;DHT22;50960;46.838;16.838;2022-11-12T00:37:16;4.10;99.90
64561;DHT22;50960;46.838;16.838;2022-11-12T00:39:44;4.10;99.90
64561;DHT22;50960;46.838;16.838;2022-11-12T00:42:10;4.00;99.90
64561;DHT22;50960;46.838;16.838;2022-11-12T00:44:36;4.00;99.90
64561;DHT22;50960;46.838;16.838;2022-11-12T00:47:02;4.00;99.90
64561;DHT22;50960;46.838;16.838;2022-11-12T00:49:29;4.00;99.90
64561;DHT22;50960;46.838;16.838;2022-11-12T00:51:55;4.00;99.90
64561;DHT22;50960;46.838;16.838;2022-11-12T00:54:21;4.00;99.90
64561;DHT22;50960;46.838;16.838;2022-11-12T00:56:48;3.80;99.90
64561;DHT22;50960;46.838;16.838;2022-11-12T00:59:14;3.70;99.90
64561;DHT22;50960;46.838;16.838;2022-11-12T01:01:40;3.70;99.90
64561;DHT22;50960;46.838;16.838;2022-11-12T01:04:07;3.70;99.90
64561;DHT22;50960;46.838;16.838;2022-11-12T01:06:33;3.70;99.90
64561;DHT22;50960;46.838;16.838;2022-11-12T01:09:00;3.70;99.90
64561;DHT22;50960;46.838;16.838;2022-11-12T01:11:27;3.60;99.90
64561;DHT22;50960;46.838;16.838;2022-11-12T01:14:03;3.50;99.90
64561;DHT22;50960;46.838;16.838;2022-11-12T01:16:34;3.40;99.90
64561;DHT22;50960;46.838;16.838;2022-11-12T01:19:01;3.50;99.90
64561;DHT22;50960;46.838;16.838;2022-11-12T01:21:29;3.50;99.90
64561;DHT22;50960;46.838;16.838;2022-11-12T01:23:57;3.40;99.90
64561;DHT22;50960;46.838;16.838;2022-11-12T01:26:25;3.40;99.90
64561;DHT22;50960;46.838;16.838;2022-11-12T01:28:53;3.50;99.90
64561;DHT22;50960;46.838;16.838;2022-11-12T01:33:55;3.50;99.90
64561;DHT22;50960;46.838;16.838;2022-11-12T01:36:23;3.50;99.90
64561;DHT22;50960;46.838;16.838;2022-11-12T01:38:50;3.40;99.90
64561;DHT22;50960;46.838;16.838;2022-11-12T01:41:20;3.40;99.90
64561;DHT22;50960;46.838;16.838;2022-11-12T01:43:47;3.30;99.90
64561;DHT22;50960;46.838;16.838;2022-11-12T01:46:20;3.30;99.90
64561;DHT22;50960;46.838;16.838;2022-11-12T01:49:05;3.40;99.90
64561;DHT22;50960;46.838;16.838;2022-11-12T01:51:40;3.50;99.90
64561;DHT22;50960;46.838;16.838;2022-11-12T01:54:07;3.40;99.90
64561;DHT22;50960;46.838;16.838;2022-11-12T01:56:35;3.30;99.90
64561;DHT22;50960;46.838;16.838;2022-11-12T01:59:05;3.30;99.90
64561;DHT22;50960;46.838;16.838;2022-11-12T02:01:34;3.40;99.90
64561;DHT22;50960;46.838;16.838;2022-11-12T02:04:01;3.30;99.90
64561;DHT22;50960;46.838;16.838;2022-11-12T02:06:28;3.00;99.90
64561;DHT22;50960;46.838;16.838;2022-11-12T02:08:55;3.00;99.90
64561;DHT22;50960;46.838;16.838;2022-11-12T02:11:22;3.00;99.90
64561;DHT22;50960;46.838;16.838;2022-11-12T02:13:50;3.00;99.90
64561;DHT22;50960;46.838;16.838;2022-11-12T02:18:55;2.90;99.90
64561;DHT22;50960;46.838;16.838;2022-11-12T02:21:22;3.00;99.90
64561;DHT22;50960;46.838;16.838;2022-11-12T02:24:04;3.00;99.90
64561;DHT22;50960;46.838;16.838;2022-11-12T02:26:34;3.00;99.90
64561;DHT22;50960;46.838;16.838;2022-11-12T02:29:01;3.00;99.90
64561;DHT22;50960;46.838;16.838;2022-11-12T02:31:28;3.10;99.90
64561;DHT22;50960;46.838;16.838;2022-11-12T02:33:54;3.10;99.90
64561;DHT22;50960;46.838;16.838;2022-11-12T02:36:21;3.00;99.90
64561;DHT22;50960;46.838;16.838;2022-11-12T02:38:47;3.00;99.90
64561;DHT22;50960;46.838;16.838;2022-11-12T02:41:13;2.80;99.90
64561;DHT22;50960;46.838;16.838;2022-11-12T02:43:40;2.80;99.90
64561;DHT22;50960;46.838;16.838;2022-11-12T02:46:06;2.90;99.90
64561;DHT22;50960;46.838;16.838;2022-11-12T02:48:33;2.90;99.90
64561;DHT22;50960;46.838;16.838;2022-11-12T02:50:59;3.10;99.90
64561;DHT22;50960;46.838;16.838;2022-11-12T02:53:25;3.20;99.90
64561;DHT22;50960;46.838;16.838;2022-11-12T02:55:52;3.10;99.90
64561;DHT22;50960;46.838;16.838;2022-11-12T02:58:18;3.20;99.90
64561;DHT22;50960;46.838;16.838;2022-11-12T03:00:44;3.10;99.90
64561;DHT22;50960;46.838;16.838;2022-11-12T03:03:10;3.10;99.90
64561;DHT22;50960;46.838;16.838;2022-11-12T03:05:36;3.00;99.90
64561;DHT22;50960;46.838;16.838;2022-11-12T03:08:05;2.90;99.90
64561;DHT22;50960;46.838;16.838;2022-11-12T03:10:32;2.90;99.90
64561;DHT22;50960;46.838;16.838;2022-11-12T03:13:00;2.80;99.90
64561;DHT22;50960;46.838;16.838;2022-11-12T03:15:27;2.80;99.90
64561;DHT22;50960;46.838;16.838;2022-11-12T03:17:55;2.70;99.90
64561;DHT22;50960;46.838;16.838;2022-11-12T03:20:21;2.70;99.90
64561;DHT22;50960;46.838;16.838;2022-11-12T03:22:58;2.80;99.90
64561;DHT22;50960;46.838;16.838;2022-11-12T03:25:26;2.80;99.90
64561;DHT22;50960;46.838;16.838;2022-11-12T03:30:25;3.00;99.90
64561;DHT22;50960;46.838;16.838;2022-11-12T03:32:51;3.00;99.90
64561;DHT22;50960;46.838;16.838;2022-11-12T03:35:18;2.90;99.90
64561;DHT22;50960;46.838;16.838;2022-11-12T03:37:44;2.90;99.90
64561;DHT22;50960;46.838;16.838;2022-11-12T03:40:10;3.00;99.90
64561;DHT22;50960;46.838;16.838;2022-11-12T03:42:36;2.90;99.90
64561;DHT22;50960;46.838;16.838;2022-11-12T03:45:03;2.80;99.90
64561;DHT22;50960;46.838;16.838;2022-11-12T03:47:29;2.80;99.90
64561;DHT22;50960;46.838;16.838;2022-11-12T03:49:56;2.80;99.90
64561;DHT22;50960;46.838;16.838;2022-11-12T03:52:22;2.90;99.90
64561;DHT22;50960;46.838;16.838;2022-11-12T03:54:48;2.90;99.90
64561;DHT22;50960;46.838;16.838;2022-11-12T03:57:14;3.00;99.90
64561;DHT22;50960;46.838;16.838;2022-11-12T03:59:40;3.00;99.90
64561;DHT22;50960;46.838;16.838;2022-11-12T04:02:06;3.00;99.90
64561;DHT22;50960;46.838;16.838;2022-11-12T04:04:33;2.90;99.90
64561;DHT22;50960;46.838;16.838;2022-11-12T04:07:18;2.90;99.90
64561;DHT22;50960;46.838;16.838;2022-11-12T04:10:03;3.00;99.90
64561;DHT22;50960;46.838;16.838;2022-11-12T04:12:29;3.00;99.90
64561;DHT22;50960;46.838;16.838;2022-11-12T04:15:14;3.10;99.90
64561;DHT22;50960;46.838;16.838;2022-11-12T04:17:40;3.10;99.90
64561;DHT22;50960;46.838;16.838;2022-11-12T04:20:25;3.10;99.90
64561;DHT22;50960;46.838;16.838;2022-11-12T04:23:29;3.20;99.90
64561;DHT22;50960;46.838;16.838;2022-11-12T04:25:56;3.20;99.90
64561;DHT22;50960;46.838;16.838;2022-11-12T04:28:40;3.20;99.90
64561;DHT22;50960;46.838;16.838;2022-11-12T04:31:27;3.10;99.90
64561;DHT22;50960;46.838;16.838;2022-11-12T04:33:53;3.10;99.90
64561;DHT22;50960;46.838;16.838;2022-11-12T04:36:19;3.10;99.90
64561;DHT22;50960;46.838;16.838;2022-11-12T04:38:45;3.10;99.90
64561;DHT22;50960;46.838;16.838;2022-11-12T04:41:12;3.00;99.90
64561;DHT22;50960;46.838;16.838;2022-11-12T04:43:56;3.00;99.90
64561;DHT22;50960;46.838;16.838;2022-11-12T04:46:41;3.00;99.90
64561;DHT22;50960;46.838;16.838;2022-11-12T04:49:07;2.80;99.90
64561;DHT22;50960;46.838;16.838;2022-11-12T04:51:33;2.80;99.90
64561;DHT22;50960;46.838;16.838;2022-11-12T04:54:18;2.80;99.90
64561;DHT22;50960;46.838;16.838;2022-11-12T04:56:44;2.80;99.90
64561;DHT22;50960;46.838;16.838;2022-11-12T04:59:11;2.80;99.90
64561;DHT22;50960;46.838;16.838;2022-11-12T05:01:37;2.80;99.90
64561;DHT22;50960;46.838;16.838;2022-11-12T05:04:03;2.70;99.90
64561;DHT22;50960;46.838;16.838;2022-11-12T05:06:29;2.70;99.90
64561;DHT22;50960;46.838;16.838;2022-11-12T05:09:14;2.70;99.90
64561;DHT22;50960;46.838;16.838;2022-11-12T05:11:40;2.60;99.90
64561;DHT22;50960;46.838;16.838;2022-11-12T05:14:06;2.70;99.90
64561;DHT22;50960;46.838;16.838;2022-11-12T05:16:33;2.80;99.90
64561;DHT22;50960;46.838;16.838;2022-11-12T05:18:59;2.80;99.90
64561;DHT22;50960;46.838;16.838;2022-11-12T05:21:25;2.70;99.90
64561;DHT22;50960;46.838;16.838;2022-11-12T05:24:10;2.80;99.90
64561;DHT22;50960;46.838;16.838;2022-11-12T05:26:36;2.80;99.90
64561;DHT22;50960;46.838;16.838;2022-11-12T05:29:03;2.80;99.90
64561;DHT22;50960;46.838;16.838;2022-11-12T05:31:29;2.80;99.90
64561;DHT22;50960;46.838;16.838;2022-11-12T05:33:56;2.80;99.90
64561;DHT22;50960;46.838;16.838;2022-11-12T05:36:22;2.90;99.90
64561;DHT22;50960;46.838;16.838;2022-11-12T05:38:48;2.90;99.90
64561;DHT22;50960;46.838;16.838;2022-11-12T05:41:14;3.00;99.90
64561;DHT22;50960;46.838;16.838;2022-11-12T05:43:40;3.10;99.90
64561;DHT22;50960;46.838;16.838;2022-11-12T05:46:07;3.00;99.90
64561;DHT22;50960;46.838;16.838;2022-11-12T05:48:33;3.10;99.90
64561;DHT22;50960;46.838;16.838;2022-11-12T05:50:59;3.10;99.90
64561;DHT22;50960;46.838;16.838;2022-11-12T05:53:25;3.10;99.90
64561;DHT22;50960;46.838;16.838;2022-11-12T05:55:52;3.20;99.90
64561;DHT22;50960;46.838;16.838;2022-11-12T05:58:18;3.20;99.90
64561;DHT22;50960;46.838;16.838;2022-11-12T06:00:44;3.20;99.90
64561;DHT22;50960;46.838;16.838;2022-11-12T06:03:11;3.20;99.90
64561;DHT22;50960;46.838;16.838;2022-11-12T06:05:37;3.40;99.90
64561;DHT22;50960;46.838;16.838;2022-11-12T06:08:05;3.40;99.90
64561;DHT22;50960;46.838;16.838;2022-11-12T06:10:32;3.40;99.90
64561;DHT22;50960;46.838;16.838;2022-11-12T06:12:58;3.50;99.90
64561;DHT22;50960;46.838;16.838;2022-11-12T06:15:24;3.70;99.90
64561;DHT22;50960;46.838;16.838;2022-11-12T06:17:55;3.80;99.90
64561;DHT22;50960;46.838;16.838;2022-11-12T06:20:22;3.90;99.90
64561;DHT22;50960;46.838;16.838;2022-11-12T06:22:49;4.00;99.90
64561;DHT22;50960;46.838;16.838;2022-11-12T06:25:16;4.00;99.90
64561;DHT22;50960;46.838;16.838;2022-11-12T06:27:42;4.20;99.90
64561;DHT22;50960;46.838;16.838;2022-11-12T06:30:09;4.30;99.90
64561;DHT22;50960;46.838;16.838;2022-11-12T06:32:35;4.50;99.90
64561;DHT22;50960;46.838;16.838;2022-11-12T06:35:01;4.60;99.90
64561;DHT22;50960;46.838;16.838;2022-11-12T06:37:28;4.70;99.80
64561;DHT22;50960;46.838;16.838;2022-11-12T06:39:54;4.90;99.40
64561;DHT22;50960;46.838;16.838;2022-11-12T06:42:20;4.90;99.10
64561;DHT22;50960;46.838;16.838;2022-11-12T06:44:46;5.10;99.00
64561;DHT22;50960;46.838;16.838;2022-11-12T06:47:13;5.10;98.50
64561;DHT22;50960;46.838;16.838;2022-11-12T06:49:39;5.10;98.10
64561;DHT22;50960;46.838;16.838;2022-11-12T06:52:05;5.20;99.10
64561;DHT22;50960;46.838;16.838;2022-11-12T06:54:32;5.30;98.80
64561;DHT22;50960;46.838;16.838;2022-11-12T06:56:58;5.50;98.40
64561;DHT22;50960;46.838;16.838;2022-11-12T06:59:24;5.60;98.20
64561;DHT22;50960;46.838;16.838;2022-11-12T07:01:50;5.70;98.00
64561;DHT22;50960;46.838;16.838;2022-11-12T07:04:17;5.80;97.60
64561;DHT22;50960;46.838;16.838;2022-11-12T07:06:44;5.90;97.70
64561;DHT22;50960;46.838;16.838;2022-11-12T07:09:10;5.90;97.10
64561;DHT22;50960;46.838;16.838;2022-11-12T07:11:36;6.00;97.40
64561;DHT22;50960;46.838;16.838;2022-11-12T07:14:06;6.10;97.50
64561;DHT22;50960;46.838;16.838;2022-11-12T07:16:33;6.10;97.40
64561;DHT22;50960;46.838;16.838;2022-11-12T07:18:59;6.10;97.80
64561;DHT22;50960;46.838;16.838;2022-11-12T07:21:26;6.10;98.30
64561;DHT22;50960;46.838;16.838;2022-11-12T07:23:52;6.00;97.40
64561;DHT22;50960;46.838;16.838;2022-11-12T07:26:24;6.10;98.50
64561;DHT22;50960;46.838;16.838;2022-11-12T07:28:51;6.20;97.80
64561;DHT22;50960;46.838;16.838;2022-11-12T07:31:19;6.20;98.10
64561;DHT22;50960;46.838;16.838;2022-11-12T07:33:46;6.10;97.90
64561;DHT22;50960;46.838;16.838;2022-11-12T07:36:17;6.20;97.50
64561;DHT22;50960;46.838;16.838;2022-11-12T07:38:44;6.40;98.40
64561;DHT22;50960;46.838;16.838;2022-11-12T07:41:18;6.60;97.60
64561;DHT22;50960;46.838;16.838;2022-11-12T07:43:46;6.60;97.50
64561;DHT22;50960;46.838;16.838;2022-11-12T07:46:17;6.70;98.00
64561;DHT22;50960;46.838;16.838;2022-11-12T07:48:44;6.80;97.50
64561;DHT22;50960;46.838;16.838;2022-11-12T07:51:15;6.70;97.40
64561;DHT22;50960;46.838;16.838;2022-11-12T07:53:42;6.90;97.60
64561;DHT22;50960;46.838;16.838;2022-11-12T07:56:11;6.90;97.70
64561;DHT22;50960;46.838;16.838;2022-11-12T07:58:37;7.00;97.30
64561;DHT22;50960;46.838;16.838;2022-11-12T08:03:46;7.20;97.30
64561;DHT22;50960;46.838;16.838;2022-11-12T08:06:12;7.30;97.40
64561;DHT22;50960;46.838;16.838;2022-11-12T08:08:39;7.50;97.60
64561;DHT22;50960;46.838;16.838;2022-11-12T08:11:05;7.60;97.20
64561;DHT22;50960;46.838;16.838;2022-11-12T08:13:31;7.60;97.20
64561;DHT22;50960;46.838;16.838;2022-11-12T08:15:58;7.70;97.10
64561;DHT22;50960;46.838;16.838;2022-11-12T08:18:27;7.60;97.00
64561;DHT22;50960;46.838;16.838;2022-11-12T08:21:05;7.60;97.50
64561;DHT22;50960;46.838;16.838;2022-11-12T08:23:33;7.70;97.50
64561;DHT22;50960;46.838;16.838;2022-11-12T08:26:04;7.90;97.40
64561;DHT22;50960;46.838;16.838;2022-11-12T08:28:34;8.00;97.20
64561;DHT22;50960;46.838;16.838;2022-11-12T08:31:09;8.20;96.60
64561;DHT22;50960;46.838;16.838;2022-11-12T08:33:35;8.20;96.50
64561;DHT22;50960;46.838;16.838;2022-11-12T08:36:03;8.30;96.60
64561;DHT22;50960;46.838;16.838;2022-11-12T08:38:30;8.30;96.70
64561;DHT22;50960;46.838;16.838;2022-11-12T08:41:04;8.40;96.10
64561;DHT22;50960;46.838;16.838;2022-11-12T08:43:31;8.50;95.90
64561;DHT22;50960;46.838;16.838;2022-11-12T08:45:59;8.70;95.80
64561;DHT22;50960;46.838;16.838;2022-11-12T08:48:27;8.90;94.90
64561;DHT22;50960;46.838;16.838;2022-11-12T08:50:55;9.00;94.60
64561;DHT22;50960;46.838;16.838;2022-11-12T08:53:23;9.10;94.30
64561;DHT22;50960;46.838;16.838;2022-11-12T08:55:54;9.20;94.30
64561;DHT22;50960;46.838;16.838;2022-11-12T08:58:21;9.40;93.10
64561;DHT22;50960;46.838;16.838;2022-11-12T09:00:48;9.50;93.30
64561;DHT22;50960;46.838;16.838;2022-11-12T09:03:17;9.60;93.00
64561;DHT22;50960;46.838;16.838;2022-11-12T09:05:44;9.70;92.40
64561;DHT22;50960;46.838;16.838;2022-11-12T09:08:13;9.80;92.30
64561;DHT22;50960;46.838;16.838;2022-11-12T09:10:40;9.90;92.50
64561;DHT22;50960;46.838;16.838;2022-11-12T09:13:07;9.90;92.50
64561;DHT22;50960;46.838;16.838;2022-11-12T09:15:33;10.00;92.50
64561;DHT22;50960;46.838;16.838;2022-11-12T09:18:01;10.00;92.10
64561;DHT22;50960;46.838;16.838;2022-11-12T09:20:28;10.10;92.10
64561;DHT22;50960;46.838;16.838;2022-11-12T09:22:59;10.10;92.10
64561;DHT22;50960;46.838;16.838;2022-11-12T09:25:26;10.10;91.80
64561;DHT22;50960;46.838;16.838;2022-11-12T09:27:53;10.10;92.10
64561;DHT22;50960;46.838;16.838;2022-11-12T09:30:19;10.10;92.30
64561;DHT22;50960;46.838;16.838;2022-11-12T09:32:46;10.10;92.40
64561;DHT22;50960;46.838;16.838;2022-11-12T09:35:12;10.10;92.00
64561;DHT22;50960;46.838;16.838;2022-11-12T09:37:38;10.10;91.70
64561;DHT22;50960;46.838;16.838;2022-11-12T09:40:06;10.20;92.20
64561;DHT22;50960;46.838;16.838;2022-11-12T09:42:34;10.10;92.20
64561;DHT22;50960;46.838;16.838;2022-11-12T09:45:03;10.20;92.30
64561;DHT22;50960;46.838;16.838;2022-11-12T09:50:24;10.30;92.80
64561;DHT22;50960;46.838;16.838;2022-11-12T09:53:06;10.30;92.60
64561;DHT22;50960;46.838;16.838;2022-11-12T09:55:37;10.40;92.90
64561;DHT22;50960;46.838;16.838;2022-11-12T09:58:11;10.40;92.00
64561;DHT22;50960;46.838;16.838;2022-11-12T10:00:47;10.40;92.60
64561;DHT22;50960;46.838;16.838;2022-11-12T10:03:41;10.40;92.60
64561;DHT22;50960;46.838;16.838;2022-11-12T10:06:17;10.50;92.70
64561;DHT22;50960;46.838;16.838;2022-11-12T10:08:52;10.50;92.90
64561;DHT22;50960;46.838;16.838;2022-11-12T10:25:15;10.80;92.60
64561;DHT22;50960;46.838;16.838;2022-11-12T10:27:42;10.90;92.80
64561;DHT22;50960;46.838;16.838;2022-11-12T10:30:19;10.90;92.80
64561;DHT22;50960;46.838;16.838;2022-11-12T10:32:48;10.90;92.40
64561;DHT22;50960;46.838;16.838;2022-11-12T10:35:20;11.00;92.40
64561;DHT22;50960;46.838;16.838;2022-11-12T10:38:06;11.20;92.20
64561;DHT22;50960;46.838;16.838;2022-11-12T10:40:38;11.40;91.70
64561;DHT22;50960;46.838;16.838;2022-11-12T10:43:22;11.60;91.20
64561;DHT22;50960;46.838;16.838;2022-11-12T10:45:49;11.80;90.90
64561;DHT22;50960;46.838;16.838;2022-11-12T10:50:58;12.20;90.20
64561;DHT22;50960;46.838;16.838;2022-11-12T10:53:36;12.50;88.20
64561;DHT22;50960;46.838;16.838;2022-11-12T10:56:04;12.50;88.00
64561;DHT22;50960;46.838;16.838;2022-11-12T11:01:34;13.00;88.10
64561;DHT22;50960;46.838;16.838;2022-11-12T11:04:01;13.10;86.20
64561;DHT22;50960;46.838;16.838;2022-11-12T11:06:27;13.20;86.20
64561;DHT22;50960;46.838;16.838;2022-11-12T11:09:13;13.20;84.00
64561;DHT22;50960;46.838;16.838;2022-11-12T11:11:50;13.30;83.40
64561;DHT22;50960;46.838;16.838;2022-11-12T11:16:57;13.60;84.40
64561;DHT22;50960;46.838;16.838;2022-11-12T11:19:39;13.40;81.00
64561;DHT22;50960;46.838;16.838;2022-11-12T11:25:07;13.10;80.90
64561;DHT22;50960;46.838;16.838;2022-11-12T11:30:24;13.30;83.40
64561;DHT22;50960;46.838;16.838;2022-11-12T11:43:38;14.30;80.40
64561;DHT22;50960;46.838;16.838;2022-11-12T11:56:40;14.90;76.70
64561;DHT22;50960;46.838;16.838;2022-11-12T11:59:25;15.00;77.40
64561;DHT22;50960;46.838;16.838;2022-11-12T12:04:50;15.20;72.90
64561;DHT22;50960;46.838;16.838;2022-11-12T12:10:26;15.50;76.80
64561;DHT22;50960;46.838;16.838;2022-11-12T12:15:43;15.50;75.20
64561;DHT22;50960;46.838;16.838;2022-11-12T12:18:24;15.40;75.50
64561;DHT22;50960;46.838;16.838;2022-11-12T12:21:15;15.40;68.50
64561;DHT22;50960;46.838;16.838;2022-11-12T12:24:01;15.30;69.30
64561;DHT22;50960;46.838;16.838;2022-11-12T12:26:54;15.50;70.60
64561;DHT22;50960;46.838;16.838;2022-11-12T12:29:56;15.30;65.10
64561;DHT22;50960;46.838;16.838;2022-11-12T12:32:37;15.20;66.70
64561;DHT22;50960;46.838;16.838;2022-11-12T12:35:31;15.10;69.60
64561;DHT22;50960;46.838;16.838;2022-11-12T12:38:09;15.10;69.00
64561;DHT22;50960;46.838;16.838;2022-11-12T12:41:10;15.50;70.50
64561;DHT22;50960;46.838;16.838;2022-11-12T12:43:44;15.70;67.80
64561;DHT22;50960;46.838;16.838;2022-11-12T12:46:12;15.80;69.00
64561;DHT22;50960;46.838;16.838;2022-11-12T12:48:44;15.80;66.80
64561;DHT22;50960;46.838;16.838;2022-11-12T12:51:11;15.90;67.10
64561;DHT22;50960;46.838;16.838;2022-11-12T12:53:38;16.00;67.00
64561;DHT22;50960;46.838;16.838;2022-11-12T12:58:58;15.90;67.70
64561;DHT22;50960;46.838;16.838;2022-11-12T13:01:31;15.70;68.60
64561;DHT22;50960;46.838;16.838;2022-11-12T13:04:03;15.80;65.80
64561;DHT22;50960;46.838;16.838;2022-11-12T13:14:52;15.60;65.40
64561;DHT22;50960;46.838;16.838;2022-11-12T13:17:44;15.20;64.60
64561;DHT22;50960;46.838;16.838;2022-11-12T13:20:31;15.30;65.80
64561;DHT22;50960;46.838;16.838;2022-11-12T13:22:58;15.30;67.80
64561;DHT22;50960;46.838;16.838;2022-11-12T13:25:27;15.20;67.70
64561;DHT22;50960;46.838;16.838;2022-11-12T13:28:08;15.20;67.80
64561;DHT22;50960;46.838;16.838;2022-11-12T13:33:01;15.10;68.50
64561;DHT22;50960;46.838;16.838;2022-11-12T13:35:38;15.10;69.30
64561;DHT22;50960;46.838;16.838;2022-11-12T13:43:39;15.00;72.00
64561;DHT22;50960;46.838;16.838;2022-11-12T13:48:42;15.00;71.10
64561;DHT22;50960;46.838;16.838;2022-11-12T13:53:57;14.70;70.50
64561;DHT22;50960;46.838;16.838;2022-11-12T13:56:32;14.80;72.10
64561;DHT22;50960;46.838;16.838;2022-11-12T13:59:27;14.70;70.40
64561;DHT22;50960;46.838;16.838;2022-11-12T14:01:54;14.50;72.70
64561;DHT22;50960;46.838;16.838;2022-11-12T14:04:22;14.60;73.80
64561;DHT22;50960;46.838;16.838;2022-11-12T14:06:51;14.70;71.60
64561;DHT22;50960;46.838;16.838;2022-11-12T14:18:14;14.60;73.30
64561;DHT22;50960;46.838;16.838;2022-11-12T14:20:42;14.50;72.80
64561;DHT22;50960;46.838;16.838;2022-11-12T14:23:18;14.40;73.20
64561;DHT22;50960;46.838;16.838;2022-11-12T14:25:55;14.40;73.00
64561;DHT22;50960;46.838;16.838;2022-11-12T14:30:51;14.30;75.00
64561;DHT22;50960;46.838;16.838;2022-11-12T14:33:19;14.00;76.20
64561;DHT22;50960;46.838;16.838;2022-11-12T14:35:48;13.90;76.50
64561;DHT22;50960;46.838;16.838;2022-11-12T14:38:45;13.90;77.60
64561;DHT22;50960;46.838;16.838;2022-11-12T14:41:26;14.00;77.60
64561;DHT22;50960;46.838;16.838;2022-11-12T14:43:58;13.90;77.40
64561;DHT22;50960;46.838;16.838;2022-11-12T14:46:47;13.90;77.50
64561;DHT22;50960;46.838;16.838;2022-11-12T14:52:13;13.70;79.30
64561;DHT22;50960;46.838;16.838;2022-11-12T14:54:48;13.60;79.30
64561;DHT22;50960;46.838;16.838;2022-11-12T14:57:27;13.50;79.90
64561;DHT22;50960;46.838;16.838;2022-11-12T14:59:55;13.40;80.30
64561;DHT22;50960;46.838;16.838;2022-11-12T15:02:30;13.40;80.30
64561;DHT22;50960;46.838;16.838;2022-11-12T15:05:15;13.40;80.90
64561;DHT22;50960;46.838;16.838;2022-11-12T15:07:59;13.30;81.00
64561;DHT22;50960;46.838;16.838;2022-11-12T15:10:38;13.30;81.10
64561;DHT22;50960;46.838;16.838;2022-11-12T15:13:15;13.30;81.40
64561;DHT22;50960;46.838;16.838;2022-11-12T15:18:27;13.10;82.30
64561;DHT22;50960;46.838;16.838;2022-11-12T15:21:20;13.10;82.90
64561;DHT22;50960;46.838;16.838;2022-11-12T15:23:54;13.00;83.10
64561;DHT22;50960;46.838;16.838;2022-11-12T15:26:44;13.10;83.30
64561;DHT22;50960;46.838;16.838;2022-11-12T15:31:50;13.00;83.60
64561;DHT22;50960;46.838;16.838;2022-11-12T15:36:57;12.90;84.50
64561;DHT22;50960;46.838;16.838;2022-11-12T15:39:26;12.80;84.40
64561;DHT22;50960;46.838;16.838;2022-11-12T15:42:05;12.80;85.20
64561;DHT22;50960;46.838;16.838;2022-11-12T15:44:37;12.70;85.30
64561;DHT22;50960;46.838;16.838;2022-11-12T15:47:04;12.60;85.90
64561;DHT22;50960;46.838;16.838;2022-11-12T15:49:30;12.50;86.80
64561;DHT22;50960;46.838;16.838;2022-11-12T15:51:56;12.40;87.00
64561;DHT22;50960;46.838;16.838;2022-11-12T15:54:22;12.30;87.20
64561;DHT22;50960;46.838;16.838;2022-11-12T15:56:49;12.20;87.40
64561;DHT22;50960;46.838;16.838;2022-11-12T15:59:16;12.20;87.90
64561;DHT22;50960;46.838;16.838;2022-11-12T16:01:43;12.10;89.30
64561;DHT22;50960;46.838;16.838;2022-11-12T16:04:11;12.00;90.20
64561;DHT22;50960;46.838;16.838;2022-11-12T16:06:37;11.90;90.40
64561;DHT22;50960;46.838;16.838;2022-11-12T16:09:04;12.00;90.50
64561;DHT22;50960;46.838;16.838;2022-11-12T16:11:30;12.00;90.20
64561;DHT22;50960;46.838;16.838;2022-11-12T16:14:03;12.10;90.00
64561;DHT22;50960;46.838;16.838;2022-11-12T16:16:31;12.10;90.10
64561;DHT22;50960;46.838;16.838;2022-11-12T16:18:58;12.10;90.20
64561;DHT22;50960;46.838;16.838;2022-11-12T16:21:24;12.10;90.00
64561;DHT22;50960;46.838;16.838;2022-11-12T16:23:50;12.10;90.00
64561;DHT22;50960;46.838;16.838;2022-11-12T16:26:26;12.20;90.10
64561;DHT22;50960;46.838;16.838;2022-11-12T16:28:53;12.20;90.20
64561;DHT22;50960;46.838;16.838;2022-11-12T16:31:19;12.20;91.10
64561;DHT22;50960;46.838;16.838;2022-11-12T16:33:46;12.20;91.20
64561;DHT22;50960;46.838;16.838;2022-11-12T16:36:13;12.10;91.00
64561;DHT22;50960;46.838;16.838;2022-11-12T16:38:41;12.10;91.00
64561;DHT22;50960;46.838;16.838;2022-11-12T16:41:10;12.10;90.80
64561;DHT22;50960;46.838;16.838;2022-11-12T16:43:37;12.20;90.90
64561;DHT22;50960;46.838;16.838;2022-11-12T16:46:27;12.10;90.90
64561;DHT22;50960;46.838;16.838;2022-11-12T16:48:54;12.10;91.20
64561;DHT22;50960;46.838;16.838;2022-11-12T16:51:21;12.10;91.60
64561;DHT22;50960;46.838;16.838;2022-11-12T16:53:48;12.10;91.50
64561;DHT22;50960;46.838;16.838;2022-11-12T16:56:20;12.10;91.30
64561;DHT22;50960;46.838;16.838;2022-11-12T16:58:47;12.10;91.40
64561;DHT22;50960;46.838;16.838;2022-11-12T17:01:26;12.10;91.50
64561;DHT22;50960;46.838;16.838;2022-11-12T17:03:54;12.10;91.70
64561;DHT22;50960;46.838;16.838;2022-11-12T17:06:23;12.00;91.70
64561;DHT22;50960;46.838;16.838;2022-11-12T17:08:53;12.00;92.10
64561;DHT22;50960;46.838;16.838;2022-11-12T17:11:19;12.00;92.20
64561;DHT22;50960;46.838;16.838;2022-11-12T17:13:46;12.00;91.80
64561;DHT22;50960;46.838;16.838;2022-11-12T17:16:13;11.90;92.10
64561;DHT22;50960;46.838;16.838;2022-11-12T17:18:40;11.90;92.10
64561;DHT22;50960;46.838;16.838;2022-11-12T17:21:11;11.90;92.40
64561;DHT22;50960;46.838;16.838;2022-11-12T17:23:38;11.80;92.00
64561;DHT22;50960;46.838;16.838;2022-11-12T17:26:08;11.80;92.20
64561;DHT22;50960;46.838;16.838;2022-11-12T17:28:35;11.70;92.10
64561;DHT22;50960;46.838;16.838;2022-11-12T17:31:21;11.60;91.90
64561;DHT22;50960;46.838;16.838;2022-11-12T17:33:49;11.60;92.00
64561;DHT22;50960;46.838;16.838;2022-11-12T17:36:22;11.60;92.30
64561;DHT22;50960;46.838;16.838;2022-11-12T17:38:55;11.50;92.30
64561;DHT22;50960;46.838;16.838;2022-11-12T17:41:21;11.50;92.40